Lochloosa, Florida
Current Conditions -  °F | °C
As of 7:53 PM on Wednesday 22 Oct 2014 (Local Time) from KGNV Reporting Station
Clear Clear  
Wind Chill: 67°   Ceiling: Unl
Heat Index: 67°   Visibility: 10mi
Dew Point: 51°   Wind: 7mph
Humidity: 57%   Direction: 30°NNE
Pressure: 30"   Gusts: NA
Location:  29.51°N, 82.1°W
Report Text: KGNV 222353Z 03006KT 10SM CLR 19/11 A3000 RMK AO2 SLP158 T01940106 10261 20194 53013
Loading
Personal Weather Stations






























Interactive Weather Map
Tropical Storm Tracking
New forecast layout! Learn more

10-Day Weather Forecast

Advertisements
Track Severe Weather on mobile